• Join FlightAware (Why Join?)
  • Login
  • US Flag 
05:51AM EDT


 

Airport Tracker/Info


-or-


 

Live Flight TrackerFlight Track Log ✈ SKW5517 ✈ 24-Apr-2013 ✈ KDEN - KMSP

Flight Track Log - Related Links

Times and Time Zones

All times are in EDT time to prevent confusion due to time zone crossing. See the SKW5517 flight status page for this flight to view local times or setup timezone preferences in your user account.

Time Position Orientation Groundspeed Altitude Reporting Facility
EDT Latitude Longitude Course Direction KTS MPH feet Rate Location/Type
05:44PM 39.9167 -104.6833 North 172 198 6,500  Level Denver TRACON
05:45PM 39.9667 -104.6500 27° Northeast 228 262 8,500 1,920 Climbing Denver TRACON
05:46PM 40.0333 -104.6000 30° Northeast 270 311 10,400 2,340 Climbing Denver TRACON
05:47PM 40.1000 -104.5500 30° Northeast 290 334 13,200 2,580 Climbing Denver TRACON
05:48PM 40.1264 -104.5356 23° Northeast 291 335 14,100 2,520 Climbing Denver Center
05:49PM 40.2078 -104.4806 27° Northeast 312 359 17,000 2,400 Climbing Denver Center
05:50PM 40.2656 -104.5000 North  Level FlightAware Approximate
05:50PM 40.2758 -104.4111 38° Northeast 313 360 19,200  Level Denver Center
05:51PM 40.3600 -104.3561 26° Northeast 316 364 21,100 1,860 Climbing Denver Center
05:52PM 40.4428 -104.3122 22° Northeast 322 371 23,100 1,740 Climbing Denver Center
05:53PM 40.5339 -104.2597 24° Northeast 333 383 24,800 1,620 Climbing Denver Center
05:54PM 40.6147 -104.1903 33° Northeast 345 397 26,500 1,200 Climbing Denver Center
05:55PM 40.6892 -104.0914 45° Northeast 372 428 27,300 1,200 Climbing Denver Center
05:56PM 40.7656 -103.9972 43° Northeast 369 425 29,000 1,260 Climbing Denver Center
05:57PM 40.8458 -103.8947 44° Northeast 394 453 30,000 1,080 Climbing Denver Center
05:58PM 40.9256 -103.7903 45° Northeast 400 460 31,300 1,140 Climbing Denver Center
05:59PM 41.0244 -103.6625 44° Northeast 403 464 32,400 780 Climbing Denver Center
06:00PM 41.1019 -103.5600 45° Northeast 410 472 33,000 240 Climbing Denver Center
06:01PM 41.1819 -103.4558 44° Northeast 421 484 33,000  Level Denver Center
06:02PM 41.2725 -103.3375 44° Northeast 411 473 33,000  Level Denver Center
06:03PM 41.3539 -103.2306 45° Northeast 426 490 33,000  Level Denver Center
06:04PM 41.4367 -103.0844 53° Northeast 452 520 33,000  Level Denver Center
06:05PM 41.4975 -102.9439 60° Northeast 456 525 33,000  Level Denver Center
06:06PM 41.5675 -102.7814 60° Northeast 454 522 33,000  Level Denver Center
06:07PM 41.6267 -102.6419 60° Northeast 452 520 33,000  Level Denver Center
06:08PM 41.6958 -102.4831 60° Northeast 449 517 33,000  Level Denver Center
06:09PM 41.7553 -102.3419 61° Northeast 449 517 33,000  Level Denver Center
06:10PM 41.8239 -102.1814 60° Northeast 448 516 33,000  Level Denver Center
06:11PM 41.8811 -102.0450 61° Northeast 440 506 33,000  Level Denver Center
06:12PM 41.9486 -101.8864 60° Northeast 439 505 33,000  Level Denver Center
06:14PM 42.0064 -101.7481 61° Northeast 440 506 33,000  Level Denver Center
06:15PM 42.0719 -101.5881 61° Northeast 438 504 33,000  Level Denver Center
06:16PM 42.1308 -101.4492 60° Northeast 442 509 33,000  Level Denver Center
06:17PM 42.1958 -101.2894 61° Northeast 438 504 33,000  Level Denver Center
06:18PM 42.2525 -101.1511 61° Northeast 440 506 33,000  Level Denver Center
06:19PM 42.3181 -100.9914 61° Northeast 436 502 33,000  Level Denver Center
06:20PM 42.3739 -100.8533 61° Northeast 435 501 33,000  Level Denver Center
06:21PM 42.4292 -100.7147 62° Northeast 436 502 33,000  Level Denver Center
06:22PM 42.4939 -100.5558 61° Northeast 433 498 33,000  Level Denver Center
06:23PM 42.5475 -100.4169 62° Northeast 433 498 33,000  Level Denver Center
06:24PM 42.6111 -100.2539 62° Northeast 436 502 33,000  Level Denver Center
06:25PM 42.6661 -100.1186 61° Northeast 432 497 33,000  Level Denver Center
06:26PM 42.7222 -99.9767 62° Northeast 430 495 33,000  Level Denver Center
06:27PM 42.7783 -99.8339 62° Northeast 429 494 33,000  Level Denver Center
06:28PM 42.8450 -99.6628 62° Northeast 427 491 33,000  Level Denver Center
06:28PM 42.8686 -99.6014 62° Northeast 429 494 33,000  Level Minneapolis Center
06:30PM 42.9239 -99.4572 62° Northeast 428 493 33,000  Level Minneapolis Center
06:31PM 42.9792 -99.3133 62° Northeast 427 491 33,000  Level Minneapolis Center
06:32PM 43.0342 -99.1683 63° Northeast 429 494 33,000  Level Minneapolis Center
06:33PM 43.1000 -98.9958 62° Northeast 427 491 33,000  Level Minneapolis Center
06:34PM 43.1500 -98.8642 62° Northeast 426 490 33,000  Level Minneapolis Center
06:35PM 43.2036 -98.7206 63° Northeast 425 489 33,000  Level Minneapolis Center
06:36PM 43.2572 -98.5769 63° Northeast 424 488 33,000  Level Minneapolis Center
06:37PM 43.3214 -98.4056 63° Northeast 422 486 33,000  Level Minneapolis Center
06:38PM 43.3756 -98.2614 63° Northeast 425 489 33,000  Level Minneapolis Center
06:39PM 43.4286 -98.1164 63° Northeast 425 489 33,000  Level Minneapolis Center
06:40PM 43.4814 -97.9711 63° Northeast 425 489 33,000  Level Minneapolis Center
06:41PM 43.5347 -97.8247 63° Northeast 427 491 33,000  Level Minneapolis Center
06:42PM 43.5989 -97.6494 63° Northeast 429 494 33,000  Level Minneapolis Center
06:43PM 43.6525 -97.5003 64° Northeast 433 498 33,000  Level Minneapolis Center
06:44PM 43.7075 -97.3467 64° Northeast 444 511 33,000  Level Minneapolis Center
06:45PM 43.7617 -97.1931 64° Northeast 445 512 33,000  Level Minneapolis Center
06:46PM 43.8536 -97.1219 29° Northeast 389 448 33,000  Level Minneapolis Center
06:47PM 43.9567 -97.0939 11° North 377 434 33,000 -480 Level Minneapolis Center
06:48PM 44.0794 -97.0583 12° North 375 432 32,100 -960 Descending Minneapolis Center
06:49PM 44.1764 -97.0292 12° North 362 417 31,100 -540 Descending Minneapolis Center
06:50PM 44.2725 -97.0008 12° North 354 407 31,000 -60 Descending Minneapolis Center
06:51PM 44.3697 -96.9703 13° North 355 409 31,000  Level Minneapolis Center
06:52PM 44.4672 -96.9414 12° North 356 410 31,000  Level Minneapolis Center
06:53PM 44.5642 -96.9128 12° North 355 409 31,000  Level Minneapolis Center
06:55PM 44.6156 -96.7928 59° Northeast 395 455 31,000  Level Minneapolis Center
06:56PM 44.4914 -96.6506 141° Southeast 439 505 31,000  Level Minneapolis Center
06:57PM 44.3758 -96.5919 160° South 444 511 31,000 -300 Level Minneapolis Center
06:58PM 44.2608 -96.5347 160° South 444 511 30,500 -780 Descending Minneapolis Center
06:59PM 44.1517 -96.4775 159° South 433 498 29,500 -1,080 Descending Minneapolis Center
07:00PM 44.0283 -96.4031 157° South 417 480 28,300 -1,020 Descending Minneapolis Center
07:01PM 43.9875 -96.2889 116° Southeast 426 490 27,500 -960 Descending Minneapolis Center
07:02PM 44.0372 -96.1211 68° East 403 464 26,400 -720 Descending Minneapolis Center
07:03PM 44.0942 -95.9939 58° Northeast 398 458 26,000 -600 Descending Minneapolis Center
07:04PM 44.1617 -95.8378 59° Northeast 398 458 25,200 -1,020 Descending Minneapolis Center
07:05PM 44.2175 -95.7125 58° Northeast 392 451 24,000 -1,200 Descending Minneapolis Center
07:06PM 44.2703 -95.5914 59° Northeast 381 438 22,800 -1,080 Descending Minneapolis Center
07:07PM 44.3133 -95.4917 59° Northeast 377 434 21,800 -840 Descending Minneapolis Center
07:08PM 44.3767 -95.3436 59° Northeast 374 430 21,000 -360 Descending Minneapolis Center
07:09PM 44.4497 -95.1761 59° Northeast 367 422 21,000  Level Minneapolis Center
07:10PM 44.4928 -95.0469 65° Northeast 366 421 21,000  Level Minneapolis Center
07:11PM 44.5208 -94.9078 74° East 369 425 21,000 -900 Level Minneapolis Center
07:12PM 44.5519 -94.7731 72° East 368 423 19,200 -1,740 Descending Minneapolis Center
07:13PM 44.5831 -94.6397 72° East 365 420 17,500 -1,920 Descending Minneapolis Center
07:15PM 44.6253 -94.4861 69° East 341 392 15,200 -1,980 Descending FAA TRACON SMA TRACON (SMA)
07:15PM 44.6319 -94.4469 77° East 337 388 14,700 -1,800 Descending FAA TRACON SMA TRACON (SMA)
07:15PM 44.6436 -94.3997 71° East 332 382 14,000 -1,800 Descending FAA TRACON SMA TRACON (SMA)
07:16PM 44.6519 -94.3603 73° East 339 390 13,500 -1,800 Descending FAA TRACON SMA TRACON (SMA)
07:16PM 44.6639 -94.3089 72° East 357 411 12,800 -1,800 Descending FAA TRACON SMA TRACON (SMA)
07:16PM 44.6731 -94.2658 73° East 370 426 12,300 -1,560 Descending FAA TRACON SMA TRACON (SMA)
07:16PM 44.6822 -94.2219 74° East 379 436 11,800 -1,500 Descending FAA TRACON SMA TRACON (SMA)
07:17PM 44.6917 -94.1778 73° East 382 440 11,300 -1,200 Descending FAA TRACON SMA TRACON (SMA)
07:17PM 44.7042 -94.1233 72° East 382 440 11,000 -600 Descending FAA TRACON SMA TRACON (SMA)
07:18PM 44.7131 -94.0800 74° East 376 433 10,900 -180 Descending FAA TRACON SMA TRACON (SMA)
07:18PM 44.7253 -94.0264 72° East 374 430 10,900  Level FAA TRACON SMA TRACON (SMA)
07:18PM 44.7350 -93.9842 72° East 372 428 10,900  Level FAA TRACON SMA TRACON (SMA)
07:19PM 44.7436 -93.9414 74° East 370 426 10,900  Level FAA TRACON SMA TRACON (SMA)
07:19PM 44.7528 -93.8986 73° East 369 425 10,900  Level FAA TRACON SMA TRACON (SMA)
07:19PM 44.7650 -93.8458 72° East 370 426 10,900  Level FAA TRACON SMA TRACON (SMA)
07:20PM 44.7739 -93.8022 74° East 375 432 10,900  Level FAA TRACON SMA TRACON (SMA)
07:20PM 44.7833 -93.7589 73° East 377 434 10,900  Level FAA TRACON SMA TRACON (SMA)
07:20PM 44.7956 -93.7042 73° East 383 441 10,900  Level FAA TRACON SMA TRACON (SMA)
07:21PM 44.8050 -93.6597 73° East 385 443 10,900  Level FAA TRACON SMA TRACON (SMA)
07:21PM 44.8272 -93.5600 73° East 385 443 10,900  Level FAA TRACON SMA TRACON (SMA)
07:22PM 44.8367 -93.5158 73° East 384 442 10,900  Level FAA TRACON SMA TRACON (SMA)
07:22PM 44.8486 -93.4617 73° East 377 434 10,900 -300 Level FAA TRACON SMA TRACON (SMA)
07:22PM 44.8572 -93.4214 73° East 357 411 10,700 -480 Descending FAA TRACON SMA TRACON (SMA)
07:23PM 44.8572 -93.3825 90° East 340 391 10,600 -480 Descending FAA TRACON SMA TRACON (SMA)
07:23PM 44.8419 -93.3422 118° Southeast 309 356 10,400 -600 Descending FAA TRACON SMA TRACON (SMA)
07:23PM 44.8275 -93.3147 127° Southeast 288 331 10,200 -480 Descending FAA TRACON SMA TRACON (SMA)
07:23PM 44.8139 -93.2869 125° Southeast 278 320 10,100 -900 Descending FAA TRACON SMA TRACON (SMA)
07:24PM 44.7986 -93.2528 122° Southeast 269 310 9,600 -1,320 Descending FAA TRACON SMA TRACON (SMA)
07:24PM 44.7869 -93.2258 121° Southeast 263 303 9,200 -1,080 Descending FAA TRACON SMA TRACON (SMA)
07:25PM 44.7750 -93.1992 122° Southeast 261 300 8,900 -1,140 Descending FAA TRACON SMA TRACON (SMA)
07:25PM 44.7475 -93.1411 124° Southeast 258 297 8,100 -1,140 Descending FAA TRACON SMA TRACON (SMA)
07:26PM 44.7350 -93.1161 125° Southeast 252 290 7,800 -780 Descending FAA TRACON SMA TRACON (SMA)
07:26PM 44.7206 -93.0883 126° Southeast 233 268 7,600 -600 Descending FAA TRACON SMA TRACON (SMA)
07:26PM 44.7094 -93.0669 126° Southeast 221 254 7,400 -780 Descending FAA TRACON SMA TRACON (SMA)
07:27PM 44.6986 -93.0469 127° Southeast 211 243 7,100 -780 Descending FAA TRACON SMA TRACON (SMA)
07:27PM 44.6856 -93.0208 125° Southeast 212 244 6,900 -600 Descending FAA TRACON SMA TRACON (SMA)
07:27PM 44.6844 -92.9942 93° East 223 257 6,700 -600 Descending FAA TRACON SMA TRACON (SMA)
07:28PM 44.6936 -92.9717 60° Northeast 232 267 6,500 -780 Descending FAA TRACON SMA TRACON (SMA)
07:28PM 44.7103 -92.9489 44° Northeast 227 261 6,200 -1,080 Descending FAA TRACON SMA TRACON (SMA)
07:28PM 44.7203 -92.9253 59° Northeast 226 260 5,800 -1,380 Descending FAA TRACON SMA TRACON (SMA)
07:29PM 44.7372 -92.9131 27° Northeast 237 273 5,300 -1,320 Descending FAA TRACON SMA TRACON (SMA)
07:29PM 44.7564 -92.9242 338° Northwest 220 253 4,900 -600 Descending FAA TRACON SMA TRACON (SMA)
07:29PM 44.7650 -92.9419 304° West 186 214 4,900  Level FAA TRACON SMA TRACON (SMA)
07:30PM 44.7728 -92.9647 296° West 169 194 4,900 -480 Level FAA TRACON SMA TRACON (SMA)
07:30PM 44.7794 -92.9831 297° West 168 193 4,600 -900 Descending FAA TRACON SMA TRACON (SMA)
07:30PM 44.7861 -93.0014 297° West 171 197 4,300 -1,080 Descending FAA TRACON SMA TRACON (SMA)
07:31PM 44.7933 -93.0183 301° West 167 192 3,900 -1,080 Descending FAA TRACON SMA TRACON (SMA)
07:31PM 44.8025 -93.0375 304° West 155 178 3,600 -900 Descending FAA TRACON SMA TRACON (SMA)
07:31PM 44.8094 -93.0525 303° West 149 171 3,300 -780 Descending FAA TRACON SMA TRACON (SMA)
07:31PM 44.8164 -93.0681 302° West 151 174 3,100 -780 Descending FAA TRACON SMA TRACON (SMA)
07:32PM 44.8242 -93.0864 301° West 143 165 2,800 -900 Descending FAA TRACON SMA TRACON (SMA)
07:32PM 44.8297 -93.1000 300° West 133 153 2,500 -780 Descending FAA TRACON SMA TRACON (SMA)
07:33PM 44.8353 -93.1131 301° West 128 147 2,300 -780 Descending FAA TRACON SMA TRACON (SMA)
07:33PM 44.8422 -93.1294 301° West 126 145 2,000 -780 Descending FAA TRACON SMA TRACON (SMA)
07:33PM 44.8478 -93.1425 301° West 124 143 1,800 -600 Descending FAA TRACON SMA TRACON (SMA)
07:34PM 44.8533 -93.1550 302° West 123 142 1,600 -780 Descending FAA TRACON SMA TRACON (SMA)
07:34PM 44.8600 -93.1703 302° West 120 138 1,300 -780 Descending FAA TRACON SMA TRACON (SMA)
07:34PM 44.8653 -93.1828 301° West 120 138 1,100 -480 Descending FAA TRACON SMA TRACON (SMA)
07:34PM 44.8694 -93.1919 303° West 121 139 1,000 -360 Descending FAA TRACON SMA TRACON (SMA)
07:36PM 44.8667 -93.2167 316° Northwest  Level FlightAware Approximate
07:43PM 44.8820 -93.2218 316° Northwest  Level Estimated